createdAt,value
2023-03-25T00:00:39.883Z,18.65
2023-03-25T00:03:22.676Z,18.66
2023-03-25T00:05:51.041Z,18.42
2023-03-25T00:08:18.803Z,18.50
2023-03-25T00:10:46.702Z,18.16
2023-03-25T00:13:14.366Z,18.54
2023-03-25T00:15:46.194Z,18.48
2023-03-25T00:18:14.732Z,18.36
2023-03-25T00:20:46.321Z,18.48
2023-03-25T00:23:13.924Z,18.23
2023-03-25T00:25:42.141Z,18.50
2023-03-25T00:28:09.802Z,18.40
2023-03-25T00:30:38.570Z,18.09
2023-03-25T00:33:06.530Z,18.24
2023-03-25T00:35:36.271Z,18.27
2023-03-25T00:38:04.130Z,18.33
2023-03-25T00:40:37.168Z,18.11
2023-03-25T00:43:05.463Z,17.96
2023-03-25T00:45:34.429Z,18.27
2023-03-25T00:48:02.113Z,18.29
2023-03-25T00:50:30.319Z,18.05
2023-03-25T00:52:57.901Z,18.13
2023-03-25T00:55:25.851Z,18.05
2023-03-25T00:57:53.458Z,18.33
2023-03-25T01:00:21.364Z,18.10
2023-03-25T01:02:49.754Z,17.88
2023-03-25T01:05:18.317Z,18.16
2023-03-25T01:07:49.937Z,17.77
2023-03-25T01:10:18.222Z,18.01
2023-03-25T01:12:46.956Z,17.80
2023-03-25T01:15:15.204Z,17.96
2023-03-25T01:17:42.893Z,17.67
2023-03-25T01:20:11.049Z,17.82
2023-03-25T01:22:38.634Z,17.96
2023-03-25T01:25:06.936Z,17.94
2023-03-25T01:27:34.494Z,17.99
2023-03-25T01:30:02.519Z,17.83
2023-03-25T01:32:30.125Z,17.34
2023-03-25T01:34:58.047Z,17.42
2023-03-25T01:37:25.892Z,17.51
2023-03-25T01:39:53.786Z,17.45
2023-03-25T01:42:21.450Z,17.44
2023-03-25T01:44:52.850Z,17.30
2023-03-25T01:47:20.842Z,17.59
2023-03-25T01:49:50.581Z,17.76
2023-03-25T01:52:25.471Z,17.91
2023-03-25T01:54:55.364Z,17.71
2023-03-25T01:57:24.359Z,17.70
2023-03-25T01:59:54.679Z,17.86
2023-03-25T02:02:25.297Z,17.85
2023-03-25T02:04:59.734Z,17.43
2023-03-25T02:07:31.192Z,17.46
2023-03-25T02:10:04.961Z,17.41
2023-03-25T02:12:32.775Z,17.16
2023-03-25T02:15:02.766Z,17.43
2023-03-25T02:17:39.410Z,17.43
2023-03-25T02:20:11.361Z,17.61
2023-03-25T02:22:42.252Z,17.42
2023-03-25T02:25:10.920Z,17.24
2023-03-25T02:27:46.184Z,17.27
2023-03-25T02:30:34.293Z,17.73
2023-03-25T02:33:17.310Z,17.04
2023-03-25T02:36:00.854Z,16.94
2023-03-25T02:38:38.447Z,17.33
2023-03-25T02:41:15.623Z,16.90
2023-03-25T02:44:12.655Z,16.99
2023-03-25T02:46:54.730Z,16.95
2023-03-25T02:49:29.053Z,16.94
2023-03-25T02:52:04.802Z,17.25
2023-03-25T02:54:37.154Z,17.15
2023-03-25T02:57:08.095Z,16.98
2023-03-25T02:59:38.716Z,16.85
2023-03-25T03:02:11.957Z,17.11
2023-03-25T03:04:48.467Z,16.75
2023-03-25T03:07:20.190Z,16.45
2023-03-25T03:09:52.400Z,16.78
2023-03-25T03:12:33.294Z,16.75
2023-03-25T03:15:06.585Z,16.69
2023-03-25T03:17:34.542Z,16.88
2023-03-25T03:20:02.291Z,16.73
2023-03-25T03:22:37.804Z,16.68
2023-03-25T03:25:05.414Z,16.75
2023-03-25T03:27:35.864Z,16.85
2023-03-25T03:30:06.707Z,16.58
2023-03-25T03:32:54.065Z,16.73
2023-03-25T03:35:38.768Z,16.31
2023-03-25T03:38:12.847Z,16.31
2023-03-25T03:40:41.823Z,16.27
2023-03-25T03:43:13.656Z,16.14
2023-03-25T03:45:44.324Z,16.62
2023-03-25T03:48:24.987Z,16.67
2023-03-25T03:51:19.721Z,16.49
2023-03-25T03:53:54.468Z,16.66
2023-03-25T03:56:37.548Z,16.82
2023-03-25T03:59:11.431Z,17.05
2023-03-25T04:01:47.504Z,17.10
2023-03-25T04:04:27.259Z,17.09
2023-03-25T04:07:01.745Z,17.14
2023-03-25T04:09:34.283Z,17.27
2023-03-25T04:12:11.169Z,16.86
2023-03-25T04:14:39.345Z,16.82
2023-03-25T04:17:07.133Z,16.92
2023-03-25T04:19:35.466Z,17.12
2023-03-25T04:22:03.844Z,16.90
2023-03-25T04:24:32.143Z,16.61
2023-03-25T04:27:03.833Z,16.67
2023-03-25T04:29:32.271Z,16.80
2023-03-25T04:32:02.683Z,16.86
2023-03-25T04:34:30.895Z,16.65
2023-03-25T04:36:58.987Z,16.42
2023-03-25T04:39:30.063Z,16.42
2023-03-25T04:41:57.578Z,16.40
2023-03-25T04:44:26.441Z,16.72
2023-03-25T04:46:56.221Z,16.37
2023-03-25T04:49:25.303Z,16.35
2023-03-25T04:51:55.823Z,16.39
2023-03-25T04:54:23.890Z,16.19
2023-03-25T04:56:51.882Z,16.47
2023-03-25T04:59:21.547Z,16.21
2023-03-25T05:01:49.462Z,16.15
2023-03-25T05:04:18.217Z,16.11
2023-03-25T05:06:47.493Z,15.83
2023-03-25T05:09:16.490Z,16.06
2023-03-25T05:11:44.240Z,15.95
2023-03-25T05:14:14.008Z,16.02
2023-03-25T05:16:42.024Z,15.95
2023-03-25T05:19:10.314Z,16.40
2023-03-25T05:21:38.909Z,16.16
2023-03-25T05:24:08.528Z,16.12
2023-03-25T05:26:40.023Z,15.90
2023-03-25T05:29:09.800Z,16.17
2023-03-25T05:31:37.446Z,16.18
2023-03-25T05:34:06.892Z,16.21
2023-03-25T05:36:35.058Z,16.14
2023-03-25T05:39:04.819Z,16.28
2023-03-25T05:41:39.165Z,15.90
2023-03-25T05:44:08.128Z,16.10
2023-03-25T05:46:36.285Z,16.03
2023-03-25T05:49:04.257Z,15.96
2023-03-25T05:51:34.228Z,15.99
2023-03-25T05:54:02.476Z,16.08
2023-03-25T05:56:30.151Z,16.39
2023-03-25T05:58:58.382Z,16.14
2023-03-25T06:04:01.353Z,16.32
2023-03-25T06:06:29.755Z,16.44
2023-03-25T06:08:59.100Z,16.64
2023-03-25T06:11:26.747Z,16.92
2023-03-25T06:13:54.771Z,16.80
2023-03-25T06:16:23.592Z,16.91
2023-03-25T06:18:56.594Z,16.82
2023-03-25T06:21:24.310Z,16.91
2023-03-25T06:23:54.155Z,16.85
2023-03-25T06:26:23.096Z,17.01
2023-03-25T06:28:53.271Z,17.40
2023-03-25T06:31:28.514Z,17.14
2023-03-25T06:33:56.883Z,17.52
2023-03-25T06:36:26.043Z,17.33
2023-03-25T06:38:54.298Z,17.13
2023-03-25T06:41:25.975Z,17.76
2023-03-25T06:44:24.147Z,17.55
2023-03-25T06:47:24.838Z,17.55
2023-03-25T06:49:52.800Z,17.73
2023-03-25T06:52:20.582Z,17.66
2023-03-25T06:54:48.586Z,17.67
2023-03-25T06:57:16.843Z,18.06
2023-03-25T06:59:45.770Z,17.60
2023-03-25T07:02:14.535Z,17.94
2023-03-25T07:04:42.573Z,18.41
2023-03-25T07:07:10.541Z,17.83
2023-03-25T07:09:38.861Z,17.90
2023-03-25T07:12:08.974Z,17.93
2023-03-25T07:14:37.224Z,17.69
2023-03-25T07:17:04.934Z,17.87
2023-03-25T07:19:32.884Z,18.66
2023-03-25T07:22:00.514Z,18.05
2023-03-25T07:24:28.568Z,18.11
2023-03-25T07:26:56.214Z,18.14
2023-03-25T07:29:27.170Z,18.14
2023-03-25T07:31:54.887Z,18.28
2023-03-25T07:34:22.971Z,18.37
2023-03-25T07:36:50.674Z,18.48
2023-03-25T07:39:19.085Z,18.56
2023-03-25T07:41:47.585Z,18.69
2023-03-25T07:44:34.287Z,19.04
2023-03-25T07:47:01.885Z,19.46
2023-03-25T07:49:30.126Z,19.01
2023-03-25T07:51:57.726Z,19.16
2023-03-25T07:54:25.928Z,18.83
2023-03-25T07:56:54.726Z,18.70
2023-03-25T07:59:22.748Z,19.19
2023-03-25T08:01:50.498Z,19.17
2023-03-25T08:04:18.586Z,19.52
2023-03-25T08:06:46.225Z,19.14
2023-03-25T08:09:14.219Z,19.33
2023-03-25T08:11:41.807Z,19.22
2023-03-25T08:14:09.793Z,19.03
2023-03-25T08:16:37.478Z,19.12
2023-03-25T08:19:05.449Z,19.19
2023-03-25T08:21:33.078Z,19.32
2023-03-25T08:24:05.019Z,19.92
2023-03-25T08:26:34.038Z,19.75
2023-03-25T08:29:03.003Z,20.12
2023-03-25T08:31:31.920Z,19.48
2023-03-25T08:34:00.727Z,19.61
2023-03-25T08:36:28.794Z,20.17
2023-03-25T08:38:56.742Z,19.95
2023-03-25T08:41:24.976Z,19.75
2023-03-25T08:43:52.999Z,19.79
2023-03-25T08:46:20.702Z,19.46
2023-03-25T08:48:50.300Z,20.04
2023-03-25T08:51:18.395Z,20.33
2023-03-25T08:53:46.500Z,19.79
2023-03-25T08:56:14.143Z,20.12
2023-03-25T08:58:42.183Z,19.87
2023-03-25T09:01:09.933Z,20.28
2023-03-25T09:03:42.478Z,20.28
2023-03-25T09:06:10.202Z,21.00
2023-03-25T09:08:38.538Z,20.86
2023-03-25T09:11:06.193Z,20.56
2023-03-25T09:13:34.075Z,20.91
2023-03-25T09:16:01.700Z,20.56
2023-03-25T09:18:32.200Z,21.10
2023-03-25T09:21:00.023Z,21.29
2023-03-25T09:23:27.943Z,21.11
2023-03-25T09:25:56.830Z,21.14
2023-03-25T09:28:24.719Z,21.85
2023-03-25T09:30:52.478Z,21.69
2023-03-25T09:33:20.794Z,21.36
2023-03-25T09:35:49.283Z,21.38
2023-03-25T09:38:17.371Z,21.56
2023-03-25T09:40:45.227Z,21.59
2023-03-25T09:43:16.138Z,22.02
2023-03-25T09:45:45.991Z,22.05
2023-03-25T09:48:27.757Z,22.20
2023-03-25T09:50:57.939Z,22.47
2023-03-25T09:53:29.249Z,22.46
2023-03-25T09:55:57.051Z,22.22
2023-03-25T09:58:44.888Z,22.05
2023-03-25T10:01:16.192Z,22.39
2023-03-25T10:04:16.943Z,22.88
2023-03-25T10:06:59.222Z,22.40
2023-03-25T10:09:35.535Z,22.60
2023-03-25T10:12:13.168Z,22.83
2023-03-25T10:14:41.527Z,22.15
2023-03-25T10:17:27.662Z,23.29
2023-03-25T10:20:05.410Z,23.63
2023-03-25T10:22:39.076Z,23.08
2023-03-25T10:25:14.023Z,23.39
2023-03-25T10:27:45.433Z,22.75
2023-03-25T10:30:15.214Z,23.24
2023-03-25T10:32:42.846Z,23.08
2023-03-25T10:35:23.159Z,23.38
2023-03-25T10:37:53.269Z,23.26
2023-03-25T10:40:27.501Z,23.52
2023-03-25T10:43:05.325Z,23.73
2023-03-25T10:45:34.463Z,24.06
2023-03-25T10:48:09.958Z,24.16
2023-03-25T10:50:38.797Z,23.95
2023-03-25T10:53:07.140Z,23.81
2023-03-25T10:55:36.355Z,24.26
2023-03-25T10:58:05.121Z,24.62
2023-03-25T11:00:34.449Z,25.20
2023-03-25T11:03:02.503Z,25.37
2023-03-25T11:05:30.697Z,25.88
2023-03-25T11:08:11.573Z,24.62
2023-03-25T11:10:48.368Z,24.04
2023-03-25T11:13:17.632Z,23.81
2023-03-25T11:15:45.833Z,24.74
2023-03-25T11:18:31.863Z,24.29
2023-03-25T11:21:11.994Z,24.59
2023-03-25T11:23:47.180Z,24.80
2023-03-25T11:26:25.623Z,24.40
2023-03-25T11:29:01.452Z,25.10
2023-03-25T11:31:33.740Z,25.13
2023-03-25T11:34:13.325Z,24.43
2023-03-25T11:36:48.218Z,24.89
2023-03-25T11:39:25.428Z,24.27
2023-03-25T11:44:52.763Z,25.24
2023-03-25T11:47:26.338Z,24.26
2023-03-25T11:49:54.314Z,25.95
2023-03-25T11:52:38.423Z,26.62
2023-03-25T11:55:06.391Z,26.20
2023-03-25T11:57:39.188Z,26.00
2023-03-25T12:00:29.873Z,26.50
2023-03-25T12:03:07.024Z,25.71
2023-03-25T12:05:34.916Z,25.31
2023-03-25T12:08:16.304Z,26.21
2023-03-25T12:10:56.563Z,26.54
2023-03-25T12:13:24.720Z,26.20
2023-03-25T12:16:08.018Z,26.60
2023-03-25T12:18:48.674Z,26.52
2023-03-25T12:21:29.766Z,25.97
2023-03-25T12:24:17.925Z,25.99
2023-03-25T12:26:50.566Z,26.75
2023-03-25T12:29:37.717Z,26.45
2023-03-25T12:32:15.756Z,27.09
2023-03-25T12:34:50.277Z,27.38
2023-03-25T12:37:20.596Z,26.30
2023-03-25T12:39:58.952Z,26.32
2023-03-25T12:42:26.574Z,26.85
2023-03-25T12:45:09.784Z,26.84
2023-03-25T12:47:43.200Z,26.21
2023-03-25T12:50:17.498Z,26.43
2023-03-25T12:52:50.409Z,26.20
2023-03-25T12:55:21.134Z,26.92
2023-03-25T12:57:51.454Z,25.95
2023-03-25T13:00:20.720Z,25.94
2023-03-25T13:03:03.842Z,26.18
2023-03-25T13:05:32.107Z,26.71
2023-03-25T13:08:03.763Z,26.51
2023-03-25T13:10:34.967Z,25.89
2023-03-25T13:13:09.233Z,25.17
2023-03-25T13:15:40.206Z,26.06
2023-03-25T13:18:13.124Z,26.80
2023-03-25T13:20:51.675Z,25.39
2023-03-25T13:23:22.183Z,26.42
2023-03-25T13:25:59.697Z,26.38
2023-03-25T13:28:38.770Z,27.33
2023-03-25T13:31:09.230Z,26.70
2023-03-25T13:33:38.180Z,27.56
2023-03-25T13:36:14.536Z,27.11
2023-03-25T13:38:44.156Z,26.68
2023-03-25T13:41:14.916Z,26.12
2023-03-25T13:43:43.201Z,26.28
2023-03-25T13:46:13.998Z,27.17
2023-03-25T13:48:46.194Z,26.33
2023-03-25T13:51:14.184Z,26.86
2023-03-25T13:53:46.871Z,26.34
2023-03-25T13:56:26.921Z,25.91
2023-03-25T13:59:04.491Z,26.37
2023-03-25T14:01:39.720Z,27.06
2023-03-25T14:04:26.874Z,27.70
2023-03-25T14:07:00.979Z,27.02
2023-03-25T14:09:28.498Z,26.68
2023-03-25T14:12:02.321Z,26.39
2023-03-25T14:14:34.546Z,27.55
2023-03-25T14:17:05.474Z,27.07
2023-03-25T14:19:38.633Z,27.30
2023-03-25T14:22:16.110Z,26.78
2023-03-25T14:24:45.195Z,26.44
2023-03-25T14:27:25.215Z,25.84
2023-03-25T14:29:55.605Z,25.91
2023-03-25T14:32:23.861Z,26.03
2023-03-25T14:34:51.503Z,27.13
2023-03-25T14:37:26.307Z,26.85
2023-03-25T14:39:55.822Z,26.81
2023-03-25T14:42:29.054Z,27.04
2023-03-25T14:45:15.724Z,26.46
2023-03-25T14:47:51.763Z,27.02
2023-03-25T14:50:22.393Z,27.39
2023-03-25T14:52:53.434Z,26.76
2023-03-25T14:55:32.138Z,25.55
2023-03-25T14:58:06.176Z,26.59
2023-03-25T15:00:35.776Z,27.29
2023-03-25T15:03:08.985Z,27.32
2023-03-25T15:05:37.460Z,27.42
2023-03-25T15:08:05.433Z,27.24
2023-03-25T15:10:37.005Z,27.47
2023-03-25T15:13:23.467Z,28.84
2023-03-25T15:15:52.545Z,29.26
2023-03-25T15:18:35.644Z,28.97
2023-03-25T15:21:09.069Z,28.07
2023-03-25T15:23:49.296Z,27.16
2023-03-25T15:26:27.143Z,27.67
2023-03-25T15:28:58.174Z,27.70
2023-03-25T15:31:40.967Z,27.43
2023-03-25T15:34:12.034Z,27.39
2023-03-25T15:36:47.802Z,26.80
2023-03-25T15:39:19.122Z,27.07
2023-03-25T15:42:04.922Z,27.07
2023-03-25T15:44:51.795Z,27.64
2023-03-25T15:47:25.278Z,28.81
2023-03-25T15:50:22.574Z,28.31
2023-03-25T15:53:08.733Z,27.67
2023-03-25T15:55:38.783Z,28.29
2023-03-25T15:58:11.862Z,27.69
2023-03-25T16:00:45.333Z,27.12
2023-03-25T16:03:20.088Z,27.02
2023-03-25T16:05:51.416Z,28.26
2023-03-25T16:08:32.294Z,27.64
2023-03-25T16:11:18.784Z,27.31
2023-03-25T16:13:46.652Z,27.39
2023-03-25T16:16:17.600Z,27.70
2023-03-25T16:18:46.934Z,26.88
2023-03-25T16:21:15.126Z,27.13
2023-03-25T16:23:42.894Z,26.61
2023-03-25T16:26:13.525Z,26.78
2023-03-25T16:28:43.048Z,26.84
2023-03-25T16:31:34.441Z,27.04
2023-03-25T16:34:02.439Z,26.14
2023-03-25T16:36:30.991Z,26.56
2023-03-25T16:38:58.675Z,26.50
2023-03-25T16:41:27.587Z,26.48
2023-03-25T16:43:55.271Z,26.08
2023-03-25T16:46:23.884Z,25.74
2023-03-25T16:48:55.087Z,25.85
2023-03-25T16:51:28.796Z,26.13
2023-03-25T16:53:59.699Z,25.51
2023-03-25T16:56:31.370Z,25.53
2023-03-25T16:59:05.304Z,25.57
2023-03-25T17:01:38.850Z,25.42
2023-03-25T17:04:11.978Z,24.93
2023-03-25T17:06:41.346Z,25.52
2023-03-25T17:09:13.760Z,25.17
2023-03-25T17:11:41.903Z,25.03
2023-03-25T17:14:16.052Z,25.30
2023-03-25T17:16:46.444Z,25.03
2023-03-25T17:19:14.943Z,25.16
2023-03-25T17:22:01.725Z,24.78
2023-03-25T17:24:37.263Z,24.44
2023-03-25T17:27:07.914Z,24.46
2023-03-25T17:29:48.764Z,24.25
2023-03-25T17:32:18.154Z,24.41
2023-03-25T17:34:56.099Z,24.17
2023-03-25T17:37:26.585Z,24.31
2023-03-25T17:39:54.463Z,24.34
2023-03-25T17:42:24.979Z,24.46
2023-03-25T17:44:53.266Z,24.27
2023-03-25T17:47:21.807Z,24.22
2023-03-25T17:49:51.509Z,24.22
2023-03-25T17:52:20.522Z,24.05
2023-03-25T17:54:48.220Z,24.10
2023-03-25T17:57:17.410Z,23.97
2023-03-25T17:59:45.323Z,23.89
2023-03-25T18:02:14.963Z,23.93
2023-03-25T18:04:42.798Z,23.62
2023-03-25T18:07:11.273Z,23.80
2023-03-25T18:09:39.844Z,23.71
2023-03-25T18:12:08.035Z,23.72
2023-03-25T18:14:36.044Z,23.74
2023-03-25T18:17:04.805Z,23.78
2023-03-25T18:19:33.832Z,23.81
2023-03-25T18:22:09.905Z,23.63
2023-03-25T18:24:38.590Z,23.59
2023-03-25T18:27:06.965Z,23.32
2023-03-25T18:29:37.605Z,23.41
2023-03-25T18:32:06.027Z,23.23
2023-03-25T18:34:34.957Z,23.31
2023-03-25T18:37:03.017Z,23.15
2023-03-25T18:39:32.779Z,23.15
2023-03-25T18:42:01.294Z,22.93
2023-03-25T18:44:31.085Z,22.74
2023-03-25T18:46:59.237Z,22.70
2023-03-25T18:49:27.621Z,22.79
2023-03-25T18:51:57.804Z,22.63
2023-03-25T18:54:25.563Z,22.61
2023-03-25T18:56:53.648Z,22.67
2023-03-25T18:59:22.211Z,22.63
2023-03-25T19:01:50.314Z,22.40
2023-03-25T19:04:18.606Z,22.33
2023-03-25T19:06:46.979Z,22.16
2023-03-25T19:09:18.529Z,21.66
2023-03-25T19:11:47.353Z,21.30
2023-03-25T19:14:15.056Z,21.02
2023-03-25T19:16:57.242Z,21.20
2023-03-25T19:19:29.357Z,21.21
2023-03-25T19:21:57.398Z,20.98
2023-03-25T19:24:25.168Z,21.08
2023-03-25T19:26:53.268Z,20.72
2023-03-25T19:29:21.002Z,20.80
2023-03-25T19:31:49.250Z,20.49
2023-03-25T19:34:18.102Z,20.58
2023-03-25T19:36:47.375Z,20.54
2023-03-25T19:39:16.261Z,20.39
2023-03-25T19:41:46.939Z,20.55
2023-03-25T19:44:14.968Z,20.21
2023-03-25T19:46:43.069Z,20.34
2023-03-25T19:49:11.009Z,19.93
2023-03-25T19:51:39.003Z,20.01
2023-03-25T19:54:06.725Z,19.62
2023-03-25T19:56:34.856Z,19.62
2023-03-25T19:59:02.793Z,19.58
2023-03-25T20:01:31.225Z,19.43
2023-03-25T20:03:59.008Z,19.36
2023-03-25T20:06:27.563Z,19.02
2023-03-25T20:08:55.287Z,19.07
2023-03-25T20:11:23.388Z,19.02
2023-03-25T20:13:51.142Z,18.73
2023-03-25T20:16:20.970Z,18.28
2023-03-25T20:18:49.653Z,17.70
2023-03-25T20:21:17.712Z,17.55
2023-03-25T20:23:45.388Z,17.01
2023-03-25T20:26:13.513Z,17.05
2023-03-25T20:28:42.197Z,17.20
2023-03-25T20:31:15.389Z,16.67
2023-03-25T20:33:43.142Z,16.80
2023-03-25T20:36:11.500Z,17.32
2023-03-25T20:38:41.931Z,17.61
2023-03-25T20:41:12.964Z,17.73
2023-03-25T20:43:40.784Z,17.50
2023-03-25T20:46:10.682Z,17.64
2023-03-25T20:48:38.495Z,17.64
2023-03-25T20:51:08.098Z,17.88
2023-03-25T20:53:36.454Z,17.97
2023-03-25T20:56:05.207Z,17.81
2023-03-25T20:58:33.807Z,17.57
2023-03-25T21:01:03.199Z,17.93
2023-03-25T21:03:31.171Z,17.53
2023-03-25T21:06:07.442Z,17.77
2023-03-25T21:08:41.671Z,18.04
2023-03-25T21:11:09.650Z,18.19
2023-03-25T21:13:37.370Z,18.04
2023-03-25T21:16:05.840Z,18.08
2023-03-25T21:18:33.530Z,17.98
2023-03-25T21:21:02.509Z,18.03
2023-03-25T21:23:31.659Z,18.02
2023-03-25T21:26:01.068Z,18.28
2023-03-25T21:28:29.509Z,17.93
2023-03-25T21:31:03.587Z,17.99
2023-03-25T21:33:37.441Z,18.00
2023-03-25T21:36:07.279Z,17.93
2023-03-25T21:38:35.748Z,17.97
2023-03-25T21:41:05.101Z,17.88
2023-03-25T21:43:33.573Z,17.85
2023-03-25T21:46:05.546Z,17.78
2023-03-25T21:48:34.694Z,17.97
2023-03-25T21:51:02.669Z,17.71
2023-03-25T21:53:34.551Z,17.85
2023-03-25T21:56:06.032Z,17.91
2023-03-25T21:58:36.706Z,17.76
2023-03-25T22:01:06.294Z,17.49
2023-03-25T22:03:37.391Z,17.65
2023-03-25T22:06:05.742Z,17.62
2023-03-25T22:08:33.643Z,17.56
2023-03-25T22:11:05.723Z,17.53
2023-03-25T22:13:33.686Z,17.64
2023-03-25T22:16:01.784Z,17.63
2023-03-25T22:18:29.512Z,17.65
2023-03-25T22:21:11.281Z,17.89
2023-03-25T22:23:40.508Z,17.63
2023-03-25T22:26:10.290Z,17.80
2023-03-25T22:28:38.292Z,17.86
2023-03-25T22:31:13.777Z,17.86
2023-03-25T22:33:41.716Z,17.65
2023-03-25T22:36:14.444Z,17.55
2023-03-25T22:38:44.563Z,17.60
2023-03-25T22:41:13.605Z,17.76
2023-03-25T22:43:41.942Z,17.66
2023-03-25T22:46:10.634Z,17.43
2023-03-25T22:48:39.673Z,17.43
2023-03-25T22:51:08.661Z,17.31
2023-03-25T22:53:36.559Z,17.50
2023-03-25T22:56:04.922Z,17.42
2023-03-25T22:58:32.734Z,17.50
2023-03-25T23:01:01.979Z,17.58
2023-03-25T23:03:29.894Z,17.44
2023-03-25T23:06:08.076Z,17.39
2023-03-25T23:08:37.507Z,17.61
2023-03-25T23:11:11.711Z,17.67
2023-03-25T23:13:42.304Z,17.74
2023-03-25T23:16:12.084Z,17.73
2023-03-25T23:18:42.275Z,17.68
2023-03-25T23:21:14.315Z,17.44
2023-03-25T23:23:52.698Z,17.48
2023-03-25T23:26:25.079Z,17.67
2023-03-25T23:28:53.876Z,17.61
2023-03-25T23:31:28.710Z,17.45
2023-03-25T23:33:58.008Z,17.35
2023-03-25T23:36:26.790Z,17.07
2023-03-25T23:38:54.692Z,17.32
2023-03-25T23:41:23.199Z,17.24
2023-03-25T23:43:51.386Z,17.08
2023-03-25T23:46:21.565Z,17.06
2023-03-25T23:48:49.669Z,16.91
2023-03-25T23:51:20.509Z,17.23
2023-03-25T23:53:49.379Z,16.96
2023-03-25T23:56:18.923Z,16.88
2023-03-25T23:58:46.467Z,16.95
